sensor_id;sensor_type;location;lat;lon;timestamp;temperature;humidity
24148;DHT22;12309;51.450;-2.624;2022-11-11T00:01:35;15.40;99.90
24148;DHT22;12309;51.450;-2.624;2022-11-11T00:04:01;15.40;99.90
24148;DHT22;12309;51.450;-2.624;2022-11-11T00:06:27;15.50;99.90
24148;DHT22;12309;51.450;-2.624;2022-11-11T00:08:52;15.50;99.90
24148;DHT22;12309;51.450;-2.624;2022-11-11T00:11:18;15.50;99.90
24148;DHT22;12309;51.450;-2.624;2022-11-11T00:13:44;15.50;99.90
24148;DHT22;12309;51.450;-2.624;2022-11-11T00:16:12;15.50;99.90
24148;DHT22;12309;51.450;-2.624;2022-11-11T00:18:39;15.50;99.90
24148;DHT22;12309;51.450;-2.624;2022-11-11T00:21:23;15.50;99.90
24148;DHT22;12309;51.450;-2.624;2022-11-11T00:24:02;15.50;99.90
24148;DHT22;12309;51.450;-2.624;2022-11-11T00:26:46;15.60;99.90
24148;DHT22;12309;51.450;-2.624;2022-11-11T00:29:12;15.60;99.90
24148;DHT22;12309;51.450;-2.624;2022-11-11T00:31:37;15.50;99.90
24148;DHT22;12309;51.450;-2.624;2022-11-11T00:34:23;15.60;99.90
24148;DHT22;12309;51.450;-2.624;2022-11-11T00:36:49;15.60;99.90
24148;DHT22;12309;51.450;-2.624;2022-11-11T00:39:14;15.60;99.90
24148;DHT22;12309;51.450;-2.624;2022-11-11T00:41:40;15.60;99.90
24148;DHT22;12309;51.450;-2.624;2022-11-11T00:44:06;15.60;99.90
24148;DHT22;12309;51.450;-2.624;2022-11-11T00:46:32;15.60;99.90
24148;DHT22;12309;51.450;-2.624;2022-11-11T00:49:16;15.60;99.90
24148;DHT22;12309;51.450;-2.624;2022-11-11T00:52:00;15.60;99.90
24148;DHT22;12309;51.450;-2.624;2022-11-11T00:54:26;15.60;99.90
24148;DHT22;12309;51.450;-2.624;2022-11-11T00:56:51;15.60;99.90
24148;DHT22;12309;51.450;-2.624;2022-11-11T00:59:17;15.50;99.90
24148;DHT22;12309;51.450;-2.624;2022-11-11T01:01:43;15.60;99.90
24148;DHT22;12309;51.450;-2.624;2022-11-11T01:04:08;15.60;99.90
24148;DHT22;12309;51.450;-2.624;2022-11-11T01:06:34;15.60;99.90
24148;DHT22;12309;51.450;-2.624;2022-11-11T01:09:05;15.30;99.90
24148;DHT22;12309;51.450;-2.624;2022-11-11T01:11:31;16.60;99.90
24148;DHT22;12309;51.450;-2.624;2022-11-11T01:13:56;15.50;99.90
24148;DHT22;12309;51.450;-2.624;2022-11-11T01:16:24;15.50;99.90
24148;DHT22;12309;51.450;-2.624;2022-11-11T01:18:51;15.60;99.90
24148;DHT22;12309;51.450;-2.624;2022-11-11T01:21:20;15.50;99.90
24148;DHT22;12309;51.450;-2.624;2022-11-11T01:23:47;15.60;99.90
24148;DHT22;12309;51.450;-2.624;2022-11-11T01:26:15;15.60;99.90
24148;DHT22;12309;51.450;-2.624;2022-11-11T01:28:41;15.50;99.90
24148;DHT22;12309;51.450;-2.624;2022-11-11T01:31:10;15.50;99.90
24148;DHT22;12309;51.450;-2.624;2022-11-11T01:33:36;15.50;99.90
24148;DHT22;12309;51.450;-2.624;2022-11-11T01:36:04;15.60;99.90
24148;DHT22;12309;51.450;-2.624;2022-11-11T01:38:30;15.60;99.90
24148;DHT22;12309;51.450;-2.624;2022-11-11T01:40:56;15.60;99.90
24148;DHT22;12309;51.450;-2.624;2022-11-11T01:43:22;15.60;99.90
24148;DHT22;12309;51.450;-2.624;2022-11-11T01:45:55;15.60;99.90
24148;DHT22;12309;51.450;-2.624;2022-11-11T01:48:30;15.60;99.90
24148;DHT22;12309;51.450;-2.624;2022-11-11T01:51:23;15.60;99.90
24148;DHT22;12309;51.450;-2.624;2022-11-11T01:53:57;15.70;99.90
24148;DHT22;12309;51.450;-2.624;2022-11-11T01:56:24;15.60;99.90
24148;DHT22;12309;51.450;-2.624;2022-11-11T01:58:52;15.60;99.90
24148;DHT22;12309;51.450;-2.624;2022-11-11T02:01:20;16.00;99.90
24148;DHT22;12309;51.450;-2.624;2022-11-11T02:03:47;15.60;99.90
24148;DHT22;12309;51.450;-2.624;2022-11-11T02:06:32;16.60;99.90
24148;DHT22;12309;51.450;-2.624;2022-11-11T02:08:59;15.60;99.90
24148;DHT22;12309;51.450;-2.624;2022-11-11T02:11:26;15.50;99.90
24148;DHT22;12309;51.450;-2.624;2022-11-11T02:14:11;15.80;99.90
24148;DHT22;12309;51.450;-2.624;2022-11-11T02:16:55;15.40;99.90
24148;DHT22;12309;51.450;-2.624;2022-11-11T02:19:26;15.40;99.90
24148;DHT22;12309;51.450;-2.624;2022-11-11T02:22:00;15.40;99.90
24148;DHT22;12309;51.450;-2.624;2022-11-11T02:24:27;15.40;99.90
24148;DHT22;12309;51.450;-2.624;2022-11-11T02:26:54;15.40;99.90
24148;DHT22;12309;51.450;-2.624;2022-11-11T02:29:21;15.40;99.90
24148;DHT22;12309;51.450;-2.624;2022-11-11T02:31:47;15.40;99.90
24148;DHT22;12309;51.450;-2.624;2022-11-11T02:34:13;15.40;99.90
24148;DHT22;12309;51.450;-2.624;2022-11-11T02:36:39;15.50;99.90
24148;DHT22;12309;51.450;-2.624;2022-11-11T02:39:07;15.50;99.90
24148;DHT22;12309;51.450;-2.624;2022-11-11T02:44:17;15.60;99.90
24148;DHT22;12309;51.450;-2.624;2022-11-11T02:46:43;15.50;99.90
24148;DHT22;12309;51.450;-2.624;2022-11-11T02:49:08;15.60;99.90
24148;DHT22;12309;51.450;-2.624;2022-11-11T02:51:34;15.60;99.90
24148;DHT22;12309;51.450;-2.624;2022-11-11T02:54:00;15.60;99.90
24148;DHT22;12309;51.450;-2.624;2022-11-11T02:56:27;15.60;99.90
24148;DHT22;12309;51.450;-2.624;2022-11-11T02:59:12;15.60;99.90
24148;DHT22;12309;51.450;-2.624;2022-11-11T03:01:38;15.60;99.90
24148;DHT22;12309;51.450;-2.624;2022-11-11T03:04:04;15.60;99.90
24148;DHT22;12309;51.450;-2.624;2022-11-11T03:06:30;15.60;99.90
24148;DHT22;12309;51.450;-2.624;2022-11-11T03:08:55;15.60;99.90
24148;DHT22;12309;51.450;-2.624;2022-11-11T03:11:21;15.50;99.90
24148;DHT22;12309;51.450;-2.624;2022-11-11T03:13:56;15.50;99.90
24148;DHT22;12309;51.450;-2.624;2022-11-11T03:16:23;15.50;99.90
24148;DHT22;12309;51.450;-2.624;2022-11-11T03:19:07;15.50;99.90
24148;DHT22;12309;51.450;-2.624;2022-11-11T03:21:33;15.60;99.90
24148;DHT22;12309;51.450;-2.624;2022-11-11T03:23:58;15.50;99.90
24148;DHT22;12309;51.450;-2.624;2022-11-11T03:26:24;15.60;99.90
24148;DHT22;12309;51.450;-2.624;2022-11-11T03:28:50;15.50;99.90
24148;DHT22;12309;51.450;-2.624;2022-11-11T03:31:16;15.60;99.90
24148;DHT22;12309;51.450;-2.624;2022-11-11T03:33:42;15.60;99.90
24148;DHT22;12309;51.450;-2.624;2022-11-11T03:36:08;15.60;99.90
24148;DHT22;12309;51.450;-2.624;2022-11-11T03:38:33;15.70;99.90
24148;DHT22;12309;51.450;-2.624;2022-11-11T03:40:59;15.70;99.90
24148;DHT22;12309;51.450;-2.624;2022-11-11T03:43:27;15.70;99.90
24148;DHT22;12309;51.450;-2.624;2022-11-11T03:45:55;15.70;99.90
24148;DHT22;12309;51.450;-2.624;2022-11-11T03:48:22;15.70;99.90
24148;DHT22;12309;51.450;-2.624;2022-11-11T03:50:48;15.70;99.90
24148;DHT22;12309;51.450;-2.624;2022-11-11T03:53:15;15.80;99.90
24148;DHT22;12309;51.450;-2.624;2022-11-11T03:55:41;15.80;99.90
24148;DHT22;12309;51.450;-2.624;2022-11-11T03:58:07;15.90;99.90
24148;DHT22;12309;51.450;-2.624;2022-11-11T04:00:33;15.90;99.90
24148;DHT22;12309;51.450;-2.624;2022-11-11T04:03:27;15.90;99.90
24148;DHT22;12309;51.450;-2.624;2022-11-11T04:06:12;15.90;99.90
24148;DHT22;12309;51.450;-2.624;2022-11-11T04:08:57;15.90;99.90
24148;DHT22;12309;51.450;-2.624;2022-11-11T04:11:43;15.90;99.90
24148;DHT22;12309;51.450;-2.624;2022-11-11T04:14:11;15.80;99.90
24148;DHT22;12309;51.450;-2.624;2022-11-11T04:16:56;15.80;99.90
24148;DHT22;12309;51.450;-2.624;2022-11-11T04:19:21;15.80;99.90
24148;DHT22;12309;51.450;-2.624;2022-11-11T04:22:06;15.70;99.90
24148;DHT22;12309;51.450;-2.624;2022-11-11T04:24:32;15.80;99.90
24148;DHT22;12309;51.450;-2.624;2022-11-11T04:27:18;15.70;99.90
24148;DHT22;12309;51.450;-2.624;2022-11-11T04:29:44;15.70;99.90
24148;DHT22;12309;51.450;-2.624;2022-11-11T04:32:17;15.60;99.90
24148;DHT22;12309;51.450;-2.624;2022-11-11T04:35:04;15.60;99.90
24148;DHT22;12309;51.450;-2.624;2022-11-11T04:37:34;15.90;99.90
24148;DHT22;12309;51.450;-2.624;2022-11-11T04:40:00;15.60;99.90
24148;DHT22;12309;51.450;-2.624;2022-11-11T04:42:44;15.50;99.90
24148;DHT22;12309;51.450;-2.624;2022-11-11T04:45:11;15.50;99.90
24148;DHT22;12309;51.450;-2.624;2022-11-11T04:50:26;15.50;99.90
24148;DHT22;12309;51.450;-2.624;2022-11-11T04:52:52;15.60;99.90
24148;DHT22;12309;51.450;-2.624;2022-11-11T04:55:18;15.50;99.90
24148;DHT22;12309;51.450;-2.624;2022-11-11T04:58:02;15.50;99.90
24148;DHT22;12309;51.450;-2.624;2022-11-11T05:00:28;15.50;99.90
24148;DHT22;12309;51.450;-2.624;2022-11-11T05:02:55;15.50;99.90
24148;DHT22;12309;51.450;-2.624;2022-11-11T05:05:43;15.50;99.90
24148;DHT22;12309;51.450;-2.624;2022-11-11T05:08:28;15.70;99.90
24148;DHT22;12309;51.450;-2.624;2022-11-11T05:11:13;15.60;99.90
24148;DHT22;12309;51.450;-2.624;2022-11-11T05:13:38;15.60;99.90
24148;DHT22;12309;51.450;-2.624;2022-11-11T05:16:25;15.60;99.90
24148;DHT22;12309;51.450;-2.624;2022-11-11T05:19:11;15.60;99.90
24148;DHT22;12309;51.450;-2.624;2022-11-11T05:21:58;15.60;99.90
24148;DHT22;12309;51.450;-2.624;2022-11-11T05:24:25;15.70;99.90
24148;DHT22;12309;51.450;-2.624;2022-11-11T05:27:09;15.60;99.90
24148;DHT22;12309;51.450;-2.624;2022-11-11T05:29:35;15.50;99.90
24148;DHT22;12309;51.450;-2.624;2022-11-11T05:32:01;15.50;99.90
24148;DHT22;12309;51.450;-2.624;2022-11-11T05:34:26;15.50;99.90
24148;DHT22;12309;51.450;-2.624;2022-11-11T05:36:52;15.50;99.90
24148;DHT22;12309;51.450;-2.624;2022-11-11T05:39:18;15.50;99.90
24148;DHT22;12309;51.450;-2.624;2022-11-11T05:41:43;15.50;99.90
24148;DHT22;12309;51.450;-2.624;2022-11-11T05:44:09;15.50;99.90
24148;DHT22;12309;51.450;-2.624;2022-11-11T05:46:34;15.50;99.90
24148;DHT22;12309;51.450;-2.624;2022-11-11T05:49:00;15.40;99.90
24148;DHT22;12309;51.450;-2.624;2022-11-11T05:51:44;15.40;99.90
24148;DHT22;12309;51.450;-2.624;2022-11-11T05:54:11;15.30;99.90
24148;DHT22;12309;51.450;-2.624;2022-11-11T05:56:37;15.40;99.90
24148;DHT22;12309;51.450;-2.624;2022-11-11T05:59:04;15.40;99.90
24148;DHT22;12309;51.450;-2.624;2022-11-11T06:01:30;15.30;99.90
24148;DHT22;12309;51.450;-2.624;2022-11-11T06:04:00;15.50;99.90
24148;DHT22;12309;51.450;-2.624;2022-11-11T06:06:26;15.40;99.90
24148;DHT22;12309;51.450;-2.624;2022-11-11T06:08:51;15.30;99.90
24148;DHT22;12309;51.450;-2.624;2022-11-11T06:11:17;15.30;99.90
24148;DHT22;12309;51.450;-2.624;2022-11-11T06:13:43;15.30;99.90
24148;DHT22;12309;51.450;-2.624;2022-11-11T06:16:08;15.30;99.90
24148;DHT22;12309;51.450;-2.624;2022-11-11T06:18:34;15.30;99.90
24148;DHT22;12309;51.450;-2.624;2022-11-11T06:21:00;15.20;99.90
24148;DHT22;12309;51.450;-2.624;2022-11-11T06:23:27;15.20;99.90
24148;DHT22;12309;51.450;-2.624;2022-11-11T06:25:53;15.20;99.90
24148;DHT22;12309;51.450;-2.624;2022-11-11T06:28:38;15.20;99.90
24148;DHT22;12309;51.450;-2.624;2022-11-11T06:31:04;15.20;99.90
24148;DHT22;12309;51.450;-2.624;2022-11-11T06:33:32;15.20;99.90
24148;DHT22;12309;51.450;-2.624;2022-11-11T06:35:58;15.20;99.90
24148;DHT22;12309;51.450;-2.624;2022-11-11T06:38:24;15.00;99.90
24148;DHT22;12309;51.450;-2.624;2022-11-11T06:40:49;15.10;99.90
24148;DHT22;12309;51.450;-2.624;2022-11-11T06:43:15;15.10;99.90
24148;DHT22;12309;51.450;-2.624;2022-11-11T06:45:41;15.10;99.90
24148;DHT22;12309;51.450;-2.624;2022-11-11T06:48:07;15.10;99.90
24148;DHT22;12309;51.450;-2.624;2022-11-11T06:50:33;15.10;99.90
24148;DHT22;12309;51.450;-2.624;2022-11-11T06:53:06;14.90;99.90
24148;DHT22;12309;51.450;-2.624;2022-11-11T06:55:33;15.10;99.90
24148;DHT22;12309;51.450;-2.624;2022-11-11T06:58:15;15.10;99.90
24148;DHT22;12309;51.450;-2.624;2022-11-11T07:00:42;15.10;99.90
24148;DHT22;12309;51.450;-2.624;2022-11-11T07:03:11;15.10;99.90
24148;DHT22;12309;51.450;-2.624;2022-11-11T07:05:36;15.20;99.90
24148;DHT22;12309;51.450;-2.624;2022-11-11T07:08:03;15.00;99.90
24148;DHT22;12309;51.450;-2.624;2022-11-11T07:10:31;15.10;99.90
24148;DHT22;12309;51.450;-2.624;2022-11-11T07:12:57;15.10;99.90
24148;DHT22;12309;51.450;-2.624;2022-11-11T07:15:23;15.10;99.90
24148;DHT22;12309;51.450;-2.624;2022-11-11T07:17:48;15.10;99.90
24148;DHT22;12309;51.450;-2.624;2022-11-11T07:20:14;15.20;99.90
24148;DHT22;12309;51.450;-2.624;2022-11-11T07:22:40;15.00;99.90
24148;DHT22;12309;51.450;-2.624;2022-11-11T07:25:06;15.10;99.90
24148;DHT22;12309;51.450;-2.624;2022-11-11T07:27:35;14.70;99.90
24148;DHT22;12309;51.450;-2.624;2022-11-11T07:30:01;15.00;99.90
24148;DHT22;12309;51.450;-2.624;2022-11-11T07:32:27;15.10;99.90
24148;DHT22;12309;51.450;-2.624;2022-11-11T07:34:53;15.10;99.90
24148;DHT22;12309;51.450;-2.624;2022-11-11T07:37:18;15.20;99.90
24148;DHT22;12309;51.450;-2.624;2022-11-11T07:39:44;15.20;99.90
24148;DHT22;12309;51.450;-2.624;2022-11-11T07:42:10;15.10;99.90
24148;DHT22;12309;51.450;-2.624;2022-11-11T07:44:35;15.20;99.90
24148;DHT22;12309;51.450;-2.624;2022-11-11T07:47:01;15.20;99.90
24148;DHT22;12309;51.450;-2.624;2022-11-11T07:49:27;15.20;99.90
24148;DHT22;12309;51.450;-2.624;2022-11-11T07:51:52;15.20;99.90
24148;DHT22;12309;51.450;-2.624;2022-11-11T07:54:18;15.10;99.90
24148;DHT22;12309;51.450;-2.624;2022-11-11T07:56:43;15.20;99.90
24148;DHT22;12309;51.450;-2.624;2022-11-11T07:59:09;15.20;99.90
24148;DHT22;12309;51.450;-2.624;2022-11-11T08:01:35;15.20;99.90
24148;DHT22;12309;51.450;-2.624;2022-11-11T08:04:00;15.20;99.90
24148;DHT22;12309;51.450;-2.624;2022-11-11T08:06:26;15.20;99.90
24148;DHT22;12309;51.450;-2.624;2022-11-11T08:08:52;15.10;99.90
24148;DHT22;12309;51.450;-2.624;2022-11-11T08:11:17;15.40;99.90
24148;DHT22;12309;51.450;-2.624;2022-11-11T08:14:03;15.40;99.90
24148;DHT22;12309;51.450;-2.624;2022-11-11T08:16:28;15.20;99.90
24148;DHT22;12309;51.450;-2.624;2022-11-11T08:18:54;15.20;99.90
24148;DHT22;12309;51.450;-2.624;2022-11-11T08:21:22;15.10;99.90
24148;DHT22;12309;51.450;-2.624;2022-11-11T08:23:48;15.20;99.90
24148;DHT22;12309;51.450;-2.624;2022-11-11T08:26:14;15.20;99.90
24148;DHT22;12309;51.450;-2.624;2022-11-11T08:28:40;15.20;99.90
24148;DHT22;12309;51.450;-2.624;2022-11-11T08:31:05;15.20;99.90
24148;DHT22;12309;51.450;-2.624;2022-11-11T08:33:31;15.30;99.90
24148;DHT22;12309;51.450;-2.624;2022-11-11T08:35:58;15.20;99.90
24148;DHT22;12309;51.450;-2.624;2022-11-11T08:38:24;15.10;99.90
24148;DHT22;12309;51.450;-2.624;2022-11-11T08:40:51;15.30;99.90
24148;DHT22;12309;51.450;-2.624;2022-11-11T08:43:17;15.20;99.90
24148;DHT22;12309;51.450;-2.624;2022-11-11T08:45:42;15.10;99.90
24148;DHT22;12309;51.450;-2.624;2022-11-11T08:48:09;15.20;99.90
24148;DHT22;12309;51.450;-2.624;2022-11-11T08:50:38;15.20;99.90
24148;DHT22;12309;51.450;-2.624;2022-11-11T08:53:06;15.20;99.90
24148;DHT22;12309;51.450;-2.624;2022-11-11T08:55:36;15.20;99.90
24148;DHT22;12309;51.450;-2.624;2022-11-11T08:58:04;15.30;99.90
24148;DHT22;12309;51.450;-2.624;2022-11-11T09:00:30;15.30;99.90
24148;DHT22;12309;51.450;-2.624;2022-11-11T09:03:05;15.30;99.90
24148;DHT22;12309;51.450;-2.624;2022-11-11T09:05:31;15.30;99.90
24148;DHT22;12309;51.450;-2.624;2022-11-11T09:08:00;15.30;99.90
24148;DHT22;12309;51.450;-2.624;2022-11-11T09:10:26;15.20;99.90
24148;DHT22;12309;51.450;-2.624;2022-11-11T09:12:58;15.40;99.90
24148;DHT22;12309;51.450;-2.624;2022-11-11T09:15:25;15.40;99.90
24148;DHT22;12309;51.450;-2.624;2022-11-11T09:17:51;15.40;99.90
24148;DHT22;12309;51.450;-2.624;2022-11-11T09:23:39;15.50;99.90
24148;DHT22;12309;51.450;-2.624;2022-11-11T09:26:04;15.50;99.90
24148;DHT22;12309;51.450;-2.624;2022-11-11T09:28:31;15.50;99.90
24148;DHT22;12309;51.450;-2.624;2022-11-11T09:30:59;15.50;99.90
24148;DHT22;12309;51.450;-2.624;2022-11-11T09:33:25;15.60;99.90
24148;DHT22;12309;51.450;-2.624;2022-11-11T09:35:51;15.60;99.90
24148;DHT22;12309;51.450;-2.624;2022-11-11T09:38:16;15.60;99.90
24148;DHT22;12309;51.450;-2.624;2022-11-11T09:41:40;15.60;99.90
24148;DHT22;12309;51.450;-2.624;2022-11-11T09:43:58;15.80;99.90
24148;DHT22;12309;51.450;-2.624;2022-11-11T09:51:52;15.70;99.90
24148;DHT22;12309;51.450;-2.624;2022-11-11T09:54:32;15.70;99.90
24148;DHT22;12309;51.450;-2.624;2022-11-11T09:57:02;15.70;99.90
24148;DHT22;12309;51.450;-2.624;2022-11-11T09:59:40;15.70;99.90
24148;DHT22;12309;51.450;-2.624;2022-11-11T10:05:18;15.80;99.90
24148;DHT22;12309;51.450;-2.624;2022-11-11T10:10:45;15.90;99.90
24148;DHT22;12309;51.450;-2.624;2022-11-11T10:13:16;15.90;99.90
24148;DHT22;12309;51.450;-2.624;2022-11-11T10:18:28;16.60;99.90
24148;DHT22;12309;51.450;-2.624;2022-11-11T10:20:55;16.00;99.90
24148;DHT22;12309;51.450;-2.624;2022-11-11T10:23:29;16.00;99.90
24148;DHT22;12309;51.450;-2.624;2022-11-11T10:26:07;16.00;99.90
24148;DHT22;12309;51.450;-2.624;2022-11-11T10:28:36;16.00;99.90
24148;DHT22;12309;51.450;-2.624;2022-11-11T10:31:05;16.10;99.90
24148;DHT22;12309;51.450;-2.624;2022-11-11T10:36:14;16.10;99.90
24148;DHT22;12309;51.450;-2.624;2022-11-11T10:38:50;16.00;99.90
24148;DHT22;12309;51.450;-2.624;2022-11-11T10:41:23;16.00;99.90
24148;DHT22;12309;51.450;-2.624;2022-11-11T10:43:50;16.00;99.90
24148;DHT22;12309;51.450;-2.624;2022-11-11T10:46:22;16.00;99.90
24148;DHT22;12309;51.450;-2.624;2022-11-11T10:51:28;16.00;99.90
24148;DHT22;12309;51.450;-2.624;2022-11-11T10:59:20;16.10;99.90
24148;DHT22;12309;51.450;-2.624;2022-11-11T11:04:19;16.20;99.90
24148;DHT22;12309;51.450;-2.624;2022-11-11T11:06:47;16.20;99.90
24148;DHT22;12309;51.450;-2.624;2022-11-11T11:09:40;16.30;99.90
24148;DHT22;12309;51.450;-2.624;2022-11-11T11:12:14;16.40;99.90
24148;DHT22;12309;51.450;-2.624;2022-11-11T11:14:43;16.40;99.90
24148;DHT22;12309;51.450;-2.624;2022-11-11T11:17:26;16.40;99.90
24148;DHT22;12309;51.450;-2.624;2022-11-11T11:20:08;16.30;99.90
24148;DHT22;12309;51.450;-2.624;2022-11-11T11:25:12;16.40;99.90
24148;DHT22;12309;51.450;-2.624;2022-11-11T11:27:37;16.30;99.90
24148;DHT22;12309;51.450;-2.624;2022-11-11T11:30:29;16.40;99.90
24148;DHT22;12309;51.450;-2.624;2022-11-11T11:32:59;16.30;99.90
24148;DHT22;12309;51.450;-2.624;2022-11-11T11:35:35;16.40;99.90
24148;DHT22;12309;51.450;-2.624;2022-11-11T11:38:02;16.40;99.90
24148;DHT22;12309;51.450;-2.624;2022-11-11T11:40:44;16.50;99.90
24148;DHT22;12309;51.450;-2.624;2022-11-11T11:43:38;16.40;99.90
24148;DHT22;12309;51.450;-2.624;2022-11-11T11:46:15;16.40;99.90
24148;DHT22;12309;51.450;-2.624;2022-11-11T11:49:05;16.40;99.90
24148;DHT22;12309;51.450;-2.624;2022-11-11T11:51:38;16.50;99.90
24148;DHT22;12309;51.450;-2.624;2022-11-11T11:54:23;16.70;99.90
24148;DHT22;12309;51.450;-2.624;2022-11-11T11:56:53;16.80;99.90
24148;DHT22;12309;51.450;-2.624;2022-11-11T11:59:39;16.70;99.90
24148;DHT22;12309;51.450;-2.624;2022-11-11T12:10:23;17.60;99.90
24148;DHT22;12309;51.450;-2.624;2022-11-11T12:13:20;17.80;99.90
24148;DHT22;12309;51.450;-2.624;2022-11-11T12:21:16;18.90;99.90
24148;DHT22;12309;51.450;-2.624;2022-11-11T12:29:38;17.40;99.90
24148;DHT22;12309;51.450;-2.624;2022-11-11T12:46:23;17.10;99.90
24148;DHT22;12309;51.450;-2.624;2022-11-11T13:07:17;23.70;99.90
24148;DHT22;12309;51.450;-2.624;2022-11-11T13:12:28;23.80;99.90
24148;DHT22;12309;51.450;-2.624;2022-11-11T13:15:14;23.80;99.90
24148;DHT22;12309;51.450;-2.624;2022-11-11T13:17:41;23.90;99.90
24148;DHT22;12309;51.450;-2.624;2022-11-11T13:22:53;21.90;99.90
24148;DHT22;12309;51.450;-2.624;2022-11-11T13:25:25;22.20;99.90
24148;DHT22;12309;51.450;-2.624;2022-11-11T13:27:57;22.00;99.90
24148;DHT22;12309;51.450;-2.624;2022-11-11T13:33:17;21.70;99.90
24148;DHT22;12309;51.450;-2.624;2022-11-11T13:35:56;21.90;99.90
24148;DHT22;12309;51.450;-2.624;2022-11-11T13:38:38;21.80;99.90
24148;DHT22;12309;51.450;-2.624;2022-11-11T13:41:09;22.40;99.90
24148;DHT22;12309;51.450;-2.624;2022-11-11T13:46:05;22.80;99.90
24148;DHT22;12309;51.450;-2.624;2022-11-11T13:48:36;20.80;99.90
24148;DHT22;12309;51.450;-2.624;2022-11-11T13:53:46;19.10;99.90
24148;DHT22;12309;51.450;-2.624;2022-11-11T13:56:21;18.80;99.90
24148;DHT22;12309;51.450;-2.624;2022-11-11T13:58:48;20.10;99.90
24148;DHT22;12309;51.450;-2.624;2022-11-11T14:01:15;18.00;99.90
24148;DHT22;12309;51.450;-2.624;2022-11-11T14:08:52;18.80;99.90
24148;DHT22;12309;51.450;-2.624;2022-11-11T14:13:53;18.50;99.90
24148;DHT22;12309;51.450;-2.624;2022-11-11T14:24:37;18.20;99.90
24148;DHT22;12309;51.450;-2.624;2022-11-11T14:27:16;18.30;99.90
24148;DHT22;12309;51.450;-2.624;2022-11-11T14:30:02;18.80;99.90
24148;DHT22;12309;51.450;-2.624;2022-11-11T14:40:28;20.00;99.90
24148;DHT22;12309;51.450;-2.624;2022-11-11T14:42:55;19.90;99.90
24148;DHT22;12309;51.450;-2.624;2022-11-11T14:47:59;18.40;99.90
24148;DHT22;12309;51.450;-2.624;2022-11-11T14:53:18;17.30;99.90
24148;DHT22;12309;51.450;-2.624;2022-11-11T14:55:50;17.00;99.90
24148;DHT22;12309;51.450;-2.624;2022-11-11T14:58:20;16.90;99.90
24148;DHT22;12309;51.450;-2.624;2022-11-11T15:01:02;16.80;99.90
24148;DHT22;12309;51.450;-2.624;2022-11-11T15:03:44;16.80;99.90
24148;DHT22;12309;51.450;-2.624;2022-11-11T15:06:42;16.70;99.90
24148;DHT22;12309;51.450;-2.624;2022-11-11T15:23:14;16.80;99.90
24148;DHT22;12309;51.450;-2.624;2022-11-11T15:26:20;17.00;99.90
24148;DHT22;12309;51.450;-2.624;2022-11-11T15:31:41;16.40;99.90
24148;DHT22;12309;51.450;-2.624;2022-11-11T15:37:02;16.90;99.90
24148;DHT22;12309;51.450;-2.624;2022-11-11T15:39:55;16.70;99.90
24148;DHT22;12309;51.450;-2.624;2022-11-11T15:42:39;16.40;99.90
24148;DHT22;12309;51.450;-2.624;2022-11-11T15:45:19;16.10;99.90
24148;DHT22;12309;51.450;-2.624;2022-11-11T15:47:46;15.90;99.90
24148;DHT22;12309;51.450;-2.624;2022-11-11T15:50:18;15.90;99.90
24148;DHT22;12309;51.450;-2.624;2022-11-11T15:52:56;15.80;99.90
24148;DHT22;12309;51.450;-2.624;2022-11-11T15:55:23;15.80;99.90
24148;DHT22;12309;51.450;-2.624;2022-11-11T15:57:49;15.50;99.90
24148;DHT22;12309;51.450;-2.624;2022-11-11T16:02:51;15.50;99.90
24148;DHT22;12309;51.450;-2.624;2022-11-11T16:05:22;15.50;99.90
24148;DHT22;12309;51.450;-2.624;2022-11-11T16:07:48;15.40;99.90
24148;DHT22;12309;51.450;-2.624;2022-11-11T16:10:41;15.40;99.90
24148;DHT22;12309;51.450;-2.624;2022-11-11T16:15:45;15.40;99.90
24148;DHT22;12309;51.450;-2.624;2022-11-11T16:18:19;15.40;99.90
24148;DHT22;12309;51.450;-2.624;2022-11-11T16:21:20;15.40;99.90
24148;DHT22;12309;51.450;-2.624;2022-11-11T16:23:48;15.40;99.90
24148;DHT22;12309;51.450;-2.624;2022-11-11T16:26:15;15.50;99.90
24148;DHT22;12309;51.450;-2.624;2022-11-11T16:28:50;15.40;99.90
24148;DHT22;12309;51.450;-2.624;2022-11-11T16:31:37;15.40;99.90
24148;DHT22;12309;51.450;-2.624;2022-11-11T16:34:42;15.40;99.90
24148;DHT22;12309;51.450;-2.624;2022-11-11T16:37:10;15.40;99.90
24148;DHT22;12309;51.450;-2.624;2022-11-11T16:39:36;15.30;99.90
24148;DHT22;12309;51.450;-2.624;2022-11-11T16:42:22;15.30;99.90
24148;DHT22;12309;51.450;-2.624;2022-11-11T16:45:01;15.30;99.90
24148;DHT22;12309;51.450;-2.624;2022-11-11T16:50:22;15.20;99.90
24148;DHT22;12309;51.450;-2.624;2022-11-11T16:52:55;15.10;99.90
24148;DHT22;12309;51.450;-2.624;2022-11-11T16:55:34;15.00;99.90
24148;DHT22;12309;51.450;-2.624;2022-11-11T16:58:21;14.90;99.90
24148;DHT22;12309;51.450;-2.624;2022-11-11T17:00:47;14.80;99.90
24148;DHT22;12309;51.450;-2.624;2022-11-11T17:03:20;14.80;99.90
24148;DHT22;12309;51.450;-2.624;2022-11-11T17:08:39;14.70;99.90
24148;DHT22;12309;51.450;-2.624;2022-11-11T17:11:52;16.40;99.90
24148;DHT22;12309;51.450;-2.624;2022-11-11T17:13:53;14.60;99.90
24148;DHT22;12309;51.450;-2.624;2022-11-11T17:16:18;14.60;99.90
24148;DHT22;12309;51.450;-2.624;2022-11-11T17:18:44;14.60;99.90
24148;DHT22;12309;51.450;-2.624;2022-11-11T17:21:11;14.70;99.90
24148;DHT22;12309;51.450;-2.624;2022-11-11T17:23:37;14.60;99.90
24148;DHT22;12309;51.450;-2.624;2022-11-11T17:26:03;14.60;99.90
24148;DHT22;12309;51.450;-2.624;2022-11-11T17:28:33;14.70;99.90
24148;DHT22;12309;51.450;-2.624;2022-11-11T17:31:07;14.70;99.90
24148;DHT22;12309;51.450;-2.624;2022-11-11T17:33:33;14.70;99.90
24148;DHT22;12309;51.450;-2.624;2022-11-11T17:35:59;14.80;99.90
24148;DHT22;12309;51.450;-2.624;2022-11-11T17:38:26;14.80;99.90
24148;DHT22;12309;51.450;-2.624;2022-11-11T17:40:52;14.80;99.90
24148;DHT22;12309;51.450;-2.624;2022-11-11T17:43:18;14.80;99.90
24148;DHT22;12309;51.450;-2.624;2022-11-11T17:45:43;14.80;99.90
24148;DHT22;12309;51.450;-2.624;2022-11-11T17:48:10;14.90;99.90
24148;DHT22;12309;51.450;-2.624;2022-11-11T17:50:37;14.90;99.90
24148;DHT22;12309;51.450;-2.624;2022-11-11T17:53:04;14.90;99.90
24148;DHT22;12309;51.450;-2.624;2022-11-11T17:55:31;14.80;99.90
24148;DHT22;12309;51.450;-2.624;2022-11-11T17:57:58;14.80;99.90
24148;DHT22;12309;51.450;-2.624;2022-11-11T18:00:24;14.80;99.90
24148;DHT22;12309;51.450;-2.624;2022-11-11T18:02:49;14.90;99.90
24148;DHT22;12309;51.450;-2.624;2022-11-11T18:05:15;14.90;99.90
24148;DHT22;12309;51.450;-2.624;2022-11-11T18:07:41;14.90;99.90
24148;DHT22;12309;51.450;-2.624;2022-11-11T18:10:08;14.90;99.90
24148;DHT22;12309;51.450;-2.624;2022-11-11T18:12:34;14.90;99.90
24148;DHT22;12309;51.450;-2.624;2022-11-11T18:15:00;15.00;99.90
24148;DHT22;12309;51.450;-2.624;2022-11-11T18:17:25;14.50;99.90
24148;DHT22;12309;51.450;-2.624;2022-11-11T18:19:51;15.00;99.90
24148;DHT22;12309;51.450;-2.624;2022-11-11T18:22:17;15.00;99.90